createdAt,value
2019-05-17T00:01:27.154Z,21.48
2019-05-17T00:04:00.411Z,21.12
2019-05-17T00:06:32.191Z,18.37
2019-05-17T00:09:03.607Z,21.10
2019-05-17T00:11:33.424Z,24.82
2019-05-17T00:14:03.369Z,21.20
2019-05-17T00:16:37.504Z,20.25
2019-05-17T00:19:07.617Z,18.45
2019-05-17T00:21:37.617Z,22.20
2019-05-17T00:24:07.472Z,28.60
2019-05-17T00:26:39.779Z,18.35
2019-05-17T00:29:08.868Z,21.15
2019-05-17T00:31:38.412Z,24.90
2019-05-17T00:34:07.944Z,21.35
2019-05-17T00:36:37.826Z,20.57
2019-05-17T00:39:07.716Z,24.85
2019-05-17T00:41:37.724Z,24.83
2019-05-17T00:44:07.540Z,28.15
2019-05-17T00:46:37.358Z,23.30
2019-05-17T00:49:06.973Z,20.75
2019-05-17T00:51:36.893Z,22.82
2019-05-17T00:54:06.979Z,20.85
2019-05-17T00:56:37.212Z,23.60
2019-05-17T00:59:07.510Z,22.52
2019-05-17T01:01:37.441Z,25.30
2019-05-17T01:04:07.308Z,26.52
2019-05-17T01:06:37.519Z,26.68
2019-05-17T01:09:07.985Z,28.73
2019-05-17T01:11:38.185Z,25.97
2019-05-17T01:14:07.800Z,29.40
2019-05-17T01:16:37.331Z,24.57
2019-05-17T01:19:07.293Z,23.80
2019-05-17T01:21:37.127Z,28.07
2019-05-17T01:24:06.963Z,29.00
2019-05-17T01:26:37.389Z,21.37
2019-05-17T01:29:08.125Z,25.55
2019-05-17T01:31:37.673Z,22.70
2019-05-17T01:34:07.584Z,26.68
2019-05-17T01:36:37.432Z,24.87
2019-05-17T01:39:16.971Z,26.97
2019-05-17T01:41:38.544Z,25.82
2019-05-17T01:44:08.097Z,20.25
2019-05-17T01:46:37.929Z,26.60
2019-05-17T01:49:07.472Z,21.87
2019-05-17T01:51:37.164Z,25.55
2019-05-17T01:54:06.982Z,27.40
2019-05-17T01:56:37.089Z,24.12
2019-05-17T01:59:06.978Z,25.35
2019-05-17T02:01:37.113Z,22.30
2019-05-17T02:04:07.030Z,22.50
2019-05-17T02:06:36.846Z,22.82
2019-05-17T02:09:07.042Z,26.82
2019-05-17T02:11:37.305Z,26.33
2019-05-17T02:14:07.432Z,20.85
2019-05-17T02:16:37.667Z,23.77
2019-05-17T02:19:07.670Z,22.55
2019-05-17T02:21:39.154Z,21.85
2019-05-17T02:24:08.717Z,22.58
2019-05-17T02:26:38.256Z,28.57
2019-05-17T02:29:07.878Z,24.45
2019-05-17T02:31:37.717Z,27.45
2019-05-17T02:34:07.604Z,26.35
2019-05-17T02:36:37.205Z,23.18
2019-05-17T02:39:07.447Z,24.40
2019-05-17T02:41:37.343Z,22.67
2019-05-17T02:44:06.897Z,24.63
2019-05-17T02:46:36.807Z,24.10
2019-05-17T02:49:06.661Z,20.47
2019-05-17T02:51:36.230Z,24.32
2019-05-17T02:54:06.145Z,22.00
2019-05-17T02:56:36.472Z,22.03
2019-05-17T02:59:06.317Z,21.60
2019-05-17T03:01:35.870Z,23.00
2019-05-17T03:04:05.466Z,26.82
2019-05-17T03:06:35.798Z,31.25
2019-05-17T03:09:06.184Z,20.23
2019-05-17T03:11:35.971Z,24.02
2019-05-17T03:14:05.817Z,21.62
2019-05-17T03:16:35.370Z,23.15
2019-05-17T03:19:04.910Z,23.57
2019-05-17T03:21:34.778Z,20.82
2019-05-17T03:24:04.849Z,26.07
2019-05-17T03:26:34.601Z,24.80
2019-05-17T03:29:04.202Z,24.43
2019-05-17T03:31:42.025Z,23.27
2019-05-17T03:34:07.251Z,23.83
2019-05-17T03:36:37.269Z,22.42
2019-05-17T03:39:07.437Z,24.37
2019-05-17T03:41:37.088Z,30.27
2019-05-17T03:44:06.877Z,24.25
2019-05-17T03:46:36.504Z,25.43
2019-05-17T03:49:06.298Z,26.02
2019-05-17T03:51:35.866Z,25.50
2019-05-17T03:54:05.723Z,27.13
2019-05-17T03:56:35.680Z,25.88
2019-05-17T03:59:05.209Z,26.50
2019-05-17T04:01:35.081Z,27.60
2019-05-17T04:04:04.613Z,26.95
2019-05-17T04:06:34.170Z,25.68
2019-05-17T04:09:06.332Z,26.77
2019-05-17T04:11:36.714Z,28.32
2019-05-17T04:14:06.753Z,25.25
2019-05-17T04:16:36.630Z,25.00
2019-05-17T04:19:06.153Z,26.93
2019-05-17T04:21:35.685Z,27.07
2019-05-17T04:24:05.638Z,24.40
2019-05-17T04:26:35.461Z,23.40
2019-05-17T04:29:05.417Z,27.85
2019-05-17T04:31:35.291Z,24.33
2019-05-17T04:34:05.235Z,26.27
2019-05-17T04:36:34.766Z,24.23
2019-05-17T04:39:07.232Z,28.12
2019-05-17T04:41:45.426Z,30.02
2019-05-17T04:44:08.574Z,26.12
2019-05-17T04:46:38.488Z,25.77
2019-05-17T04:49:08.418Z,29.90
2019-05-17T04:51:38.038Z,27.27
2019-05-17T04:54:07.908Z,29.60
2019-05-17T04:56:37.715Z,29.42
2019-05-17T04:59:07.299Z,24.25
2019-05-17T05:01:37.161Z,27.42
2019-05-17T05:04:06.739Z,25.62
2019-05-17T05:06:36.583Z,33.88
2019-05-17T05:09:07.066Z,30.12
2019-05-17T05:11:51.945Z,26.90
2019-05-17T05:14:08.058Z,24.10
2019-05-17T05:16:37.885Z,28.30
2019-05-17T05:19:07.442Z,36.68
2019-05-17T05:21:37.309Z,31.68
2019-05-17T05:24:06.849Z,31.33
2019-05-17T05:26:36.393Z,32.83
2019-05-17T05:29:06.261Z,32.35
2019-05-17T05:31:35.783Z,30.88
2019-05-17T05:34:05.410Z,32.38
2019-05-17T05:36:35.169Z,29.77
2019-05-17T05:39:06.771Z,33.60
2019-05-17T05:41:36.647Z,28.80
2019-05-17T05:44:06.277Z,30.75
2019-05-17T05:46:36.069Z,28.55
2019-05-17T05:49:05.633Z,35.65
2019-05-17T05:51:35.525Z,24.02
2019-05-17T05:54:05.217Z,33.48
2019-05-17T05:56:34.940Z,31.35
2019-05-17T05:59:04.553Z,33.15
2019-05-17T06:01:34.397Z,34.45
2019-05-17T06:04:04.313Z,34.35
2019-05-17T06:06:34.217Z,31.27
2019-05-17T06:09:06.365Z,30.48
2019-05-17T06:11:36.137Z,29.77
2019-05-17T06:14:06.640Z,35.85
2019-05-17T06:16:36.325Z,31.95
2019-05-17T06:19:05.929Z,33.05
2019-05-17T06:21:37.272Z,32.10
2019-05-17T06:24:07.068Z,33.28
2019-05-17T06:26:36.871Z,38.75
2019-05-17T06:29:06.700Z,46.88
2019-05-17T06:31:37.083Z,40.88
2019-05-17T06:34:07.049Z,31.35
2019-05-17T06:36:37.450Z,35.65
2019-05-17T06:39:08.313Z,31.33
2019-05-17T06:41:37.945Z,33.55
2019-05-17T06:44:08.717Z,32.90
2019-05-17T06:46:38.666Z,37.00
2019-05-17T06:49:08.517Z,37.27
2019-05-17T06:51:38.077Z,34.67
2019-05-17T06:54:07.951Z,33.53
2019-05-17T06:56:41.645Z,36.58
2019-05-17T06:59:11.076Z,35.08
2019-05-17T07:01:41.136Z,27.87
2019-05-17T07:04:10.851Z,33.75
2019-05-17T07:06:40.654Z,35.45
2019-05-17T07:09:10.304Z,35.75
2019-05-17T07:11:40.214Z,33.73
2019-05-17T07:14:09.744Z,33.05
2019-05-17T07:16:39.834Z,35.98
2019-05-17T07:19:10.353Z,33.13
2019-05-17T07:21:40.600Z,35.08
2019-05-17T07:24:10.282Z,34.33
2019-05-17T07:26:40.160Z,32.45
2019-05-17T07:29:10.199Z,31.75
2019-05-17T07:31:40.491Z,36.93
2019-05-17T07:34:10.257Z,35.98
2019-05-17T07:36:39.940Z,31.52
2019-05-17T07:39:10.794Z,32.33
2019-05-17T07:41:41.264Z,33.48
2019-05-17T07:44:10.792Z,41.45
2019-05-17T07:46:40.378Z,32.40
2019-05-17T07:49:10.846Z,30.00
2019-05-17T07:51:40.908Z,33.92
2019-05-17T07:54:10.587Z,30.93
2019-05-17T07:56:40.421Z,31.37
2019-05-17T07:59:10.708Z,35.38
2019-05-17T08:01:41.281Z,36.30
2019-05-17T08:04:10.953Z,33.98
2019-05-17T08:06:40.902Z,32.63
2019-05-17T08:09:14.231Z,26.03
2019-05-17T08:11:43.953Z,28.10
2019-05-17T08:14:26.466Z,35.10
2019-05-17T08:16:45.088Z,28.83
2019-05-17T08:19:14.989Z,30.47
2019-05-17T08:21:44.832Z,27.37
2019-05-17T08:24:14.484Z,23.97
2019-05-17T08:26:44.238Z,26.90
2019-05-17T08:29:13.817Z,25.68
2019-05-17T08:31:43.669Z,29.70
2019-05-17T08:34:13.226Z,27.67
2019-05-17T08:36:43.110Z,24.27
2019-05-17T08:39:12.661Z,30.33
2019-05-17T08:41:42.958Z,29.67
2019-05-17T08:44:12.506Z,28.00
2019-05-17T08:46:42.348Z,25.32
2019-05-17T08:49:11.909Z,25.47
2019-05-17T08:51:41.516Z,26.62
2019-05-17T08:54:11.365Z,26.87
2019-05-17T08:56:41.199Z,27.43
2019-05-17T08:59:10.750Z,23.87
2019-05-17T09:01:41.879Z,22.90
2019-05-17T09:04:11.773Z,26.73
2019-05-17T09:06:41.309Z,25.23
2019-05-17T09:09:10.863Z,27.00
2019-05-17T09:11:40.692Z,25.00
2019-05-17T09:14:10.587Z,24.70
2019-05-17T09:16:40.605Z,26.33
2019-05-17T09:19:10.489Z,28.12
2019-05-17T09:21:41.875Z,21.60
2019-05-17T09:24:11.517Z,26.15
2019-05-17T09:26:41.041Z,29.32
2019-05-17T09:29:10.893Z,24.67
2019-05-17T09:31:40.591Z,27.10
2019-05-17T09:34:10.348Z,28.90
2019-05-17T09:36:40.871Z,28.98
2019-05-17T09:41:39.875Z,28.70
2019-05-17T09:44:15.921Z,25.57
2019-05-17T09:46:41.177Z,27.02
2019-05-17T09:49:10.788Z,25.10
2019-05-17T09:51:40.622Z,28.12
2019-05-17T09:54:10.377Z,30.67
2019-05-17T09:56:40.160Z,26.47
2019-05-17T09:59:10.117Z,23.05
2019-05-17T10:01:40.082Z,26.87
2019-05-17T10:04:13.452Z,28.80
2019-05-17T10:06:41.318Z,25.92
2019-05-17T10:09:10.856Z,22.70
2019-05-17T10:11:40.414Z,26.77
2019-05-17T10:14:18.257Z,25.05
2019-05-17T10:16:41.552Z,23.45
2019-05-17T10:19:11.369Z,22.90
2019-05-17T10:21:41.250Z,24.13
2019-05-17T10:24:10.777Z,24.40
2019-05-17T10:26:40.673Z,25.52
2019-05-17T10:29:10.210Z,25.43
2019-05-17T10:31:40.075Z,25.32
2019-05-17T10:34:09.983Z,26.30
2019-05-17T10:36:40.101Z,27.57
2019-05-17T10:39:10.056Z,29.37
2019-05-17T10:41:40.661Z,29.53
2019-05-17T10:46:40.729Z,27.42
2019-05-17T10:49:10.994Z,26.65
2019-05-17T10:51:40.697Z,28.80
2019-05-17T10:54:10.549Z,23.62
2019-05-17T10:56:40.489Z,26.37
2019-05-17T10:59:10.105Z,25.77
2019-05-17T11:01:39.896Z,29.50
2019-05-17T11:04:10.435Z,29.82
2019-05-17T11:09:10.230Z,29.48
2019-05-17T11:11:40.014Z,27.48
2019-05-17T11:14:09.948Z,27.17
2019-05-17T11:16:39.496Z,23.67
2019-05-17T11:19:09.360Z,25.65
2019-05-17T11:21:39.218Z,26.00
2019-05-17T11:24:08.786Z,28.20
2019-05-17T11:26:38.648Z,26.02
2019-05-17T11:29:08.265Z,23.53
2019-05-17T11:31:38.077Z,25.25
2019-05-17T11:34:07.629Z,26.95
2019-05-17T11:36:37.565Z,24.70
2019-05-17T11:39:07.681Z,25.50
2019-05-17T11:41:37.317Z,23.98
2019-05-17T11:44:06.926Z,25.82
2019-05-17T11:46:36.758Z,21.77
2019-05-17T11:49:06.748Z,25.33
2019-05-17T11:51:36.612Z,22.77
2019-05-17T11:54:06.160Z,24.47
2019-05-17T11:56:36.005Z,20.25
2019-05-17T11:59:05.947Z,22.83
2019-05-17T12:01:35.457Z,23.52
2019-05-17T12:04:05.073Z,27.73
2019-05-17T12:06:34.845Z,28.02
2019-05-17T12:09:05.824Z,30.20
2019-05-17T12:11:35.576Z,26.15
2019-05-17T12:14:05.574Z,24.90
2019-05-17T12:16:35.369Z,29.48
2019-05-17T12:19:04.909Z,28.77
2019-05-17T12:21:34.523Z,30.10
2019-05-17T12:24:04.367Z,25.55
2019-05-17T12:26:34.185Z,30.57
2019-05-17T12:29:03.801Z,28.23
2019-05-17T12:31:33.609Z,26.00
2019-05-17T12:34:03.583Z,26.67
2019-05-17T12:36:33.463Z,37.48
2019-05-17T12:39:04.487Z,32.70
2019-05-17T12:41:34.094Z,30.40
2019-05-17T12:44:04.086Z,28.75
2019-05-17T12:46:33.933Z,28.87
2019-05-17T12:49:03.545Z,26.10
2019-05-17T12:51:33.422Z,30.65
2019-05-17T12:54:02.965Z,32.63
2019-05-17T12:56:32.780Z,32.60
2019-05-17T12:59:02.317Z,26.25
2019-05-17T13:01:31.878Z,27.85
2019-05-17T13:04:01.718Z,26.77
2019-05-17T13:06:31.634Z,25.33
2019-05-17T13:09:01.181Z,23.67
2019-05-17T13:11:31.067Z,31.45
2019-05-17T13:14:00.593Z,24.43
2019-05-17T13:16:30.151Z,28.32
2019-05-17T13:18:59.758Z,24.00
2019-05-17T13:21:29.493Z,28.83
2019-05-17T13:23:59.015Z,24.50
2019-05-17T13:26:28.556Z,26.05
2019-05-17T13:28:58.414Z,28.85
2019-05-17T13:31:27.964Z,28.05
2019-05-17T13:33:57.841Z,26.45
2019-05-17T13:36:27.373Z,28.50
2019-05-17T13:38:56.909Z,26.48
2019-05-17T13:41:27.079Z,29.15
2019-05-17T13:43:56.792Z,29.72
2019-05-17T13:46:33.025Z,28.42
2019-05-17T13:48:58.157Z,25.97
2019-05-17T13:51:27.704Z,32.98
2019-05-17T13:53:57.244Z,26.40
2019-05-17T13:56:27.119Z,25.30
2019-05-17T13:58:56.650Z,23.33
2019-05-17T14:01:26.535Z,22.50
2019-05-17T14:03:56.558Z,23.85
2019-05-17T14:06:26.486Z,26.70
2019-05-17T14:08:56.262Z,27.10
2019-05-17T14:11:25.868Z,25.52
2019-05-17T14:13:55.741Z,27.85
2019-05-17T14:16:25.683Z,27.93
2019-05-17T14:18:55.543Z,25.60
2019-05-17T14:21:25.093Z,26.43
2019-05-17T14:23:54.967Z,29.45
2019-05-17T14:26:24.559Z,25.97
2019-05-17T14:28:54.381Z,26.90
2019-05-17T14:31:24.290Z,25.97
2019-05-17T14:33:53.872Z,36.93
2019-05-17T14:36:23.713Z,24.85
2019-05-17T14:38:53.269Z,26.05
2019-05-17T14:41:23.221Z,26.95
2019-05-17T14:43:53.077Z,26.90
2019-05-17T14:46:22.690Z,32.73
2019-05-17T14:48:52.502Z,32.88
2019-05-17T14:51:22.409Z,30.00
2019-05-17T14:53:52.104Z,21.90
2019-05-17T14:56:21.861Z,28.95
2019-05-17T14:58:51.752Z,26.37
2019-05-17T15:01:21.382Z,28.65
2019-05-17T15:03:51.186Z,27.90
2019-05-17T15:06:20.790Z,27.00
2019-05-17T15:08:50.586Z,26.77
2019-05-17T15:11:20.616Z,29.50
2019-05-17T15:13:50.416Z,28.92
2019-05-17T15:16:20.041Z,35.17
2019-05-17T15:18:49.848Z,30.15
2019-05-17T15:21:19.380Z,30.15
2019-05-17T15:23:48.930Z,29.40
2019-05-17T15:26:18.762Z,27.75
2019-05-17T15:28:48.319Z,30.27
2019-05-17T15:31:18.181Z,25.70
2019-05-17T15:33:47.731Z,29.35
2019-05-17T15:36:19.109Z,28.27
2019-05-17T15:38:48.787Z,24.23
2019-05-17T15:41:18.689Z,27.32
2019-05-17T15:43:48.738Z,29.87
2019-05-17T15:46:18.511Z,31.83
2019-05-17T15:48:48.077Z,25.62
2019-05-17T15:51:17.929Z,32.90
2019-05-17T15:53:47.867Z,33.23
2019-05-17T15:56:23.177Z,28.30
2019-05-17T15:58:53.054Z,27.62
2019-05-17T16:01:23.811Z,27.70
2019-05-17T16:06:22.465Z,32.50
2019-05-17T16:08:52.278Z,28.62
2019-05-17T16:11:21.870Z,30.60
2019-05-17T16:13:51.722Z,30.52
2019-05-17T16:16:21.339Z,31.02
2019-05-17T16:18:51.165Z,37.05
2019-05-17T16:21:20.817Z,37.85
2019-05-17T16:23:50.773Z,35.48
2019-05-17T16:26:20.473Z,39.77
2019-05-17T16:28:50.010Z,40.08
2019-05-17T16:31:19.894Z,35.45
2019-05-17T16:33:50.960Z,33.27
2019-05-17T16:36:21.069Z,43.02
2019-05-17T16:38:50.871Z,43.10
2019-05-17T16:41:20.812Z,41.60
2019-05-17T16:43:50.677Z,42.40
2019-05-17T16:46:20.221Z,39.00
2019-05-17T16:48:49.753Z,41.25
2019-05-17T16:51:20.277Z,43.35
2019-05-17T16:53:49.862Z,41.35
2019-05-17T16:56:19.509Z,43.98
2019-05-17T16:58:49.421Z,42.13
2019-05-17T17:01:19.300Z,38.50
2019-05-17T17:03:48.856Z,50.08
2019-05-17T17:06:18.771Z,45.38
2019-05-17T17:08:48.619Z,44.97
2019-05-17T17:11:18.160Z,40.23
2019-05-17T17:13:48.041Z,40.25
2019-05-17T17:16:17.585Z,41.20
2019-05-17T17:18:47.113Z,40.15
2019-05-17T17:21:17.066Z,39.42
2019-05-17T17:23:46.929Z,38.57
2019-05-17T17:26:16.559Z,41.15
2019-05-17T17:28:46.310Z,43.95
2019-05-17T17:31:16.870Z,40.48
2019-05-17T17:33:46.925Z,41.70
2019-05-17T17:36:19.350Z,46.65
2019-05-17T17:38:48.029Z,39.25
2019-05-17T17:41:17.649Z,41.02
2019-05-17T17:43:58.098Z,42.65
2019-05-17T17:46:19.059Z,40.38
2019-05-17T17:48:48.922Z,41.60
2019-05-17T17:51:18.530Z,40.98
2019-05-17T17:53:48.335Z,43.15
2019-05-17T17:56:17.909Z,45.23
2019-05-17T17:58:47.771Z,45.48
2019-05-17T18:01:17.310Z,43.10
2019-05-17T18:03:46.837Z,45.40
2019-05-17T18:06:16.721Z,38.65
2019-05-17T18:08:46.255Z,41.92
2019-05-17T18:11:16.550Z,46.08
2019-05-17T18:13:46.079Z,44.77
2019-05-17T18:16:15.618Z,51.05
2019-05-17T18:18:45.508Z,45.28
2019-05-17T18:21:15.112Z,48.23
2019-05-17T18:23:44.653Z,40.90
2019-05-17T18:26:14.402Z,43.00
2019-05-17T18:28:44.385Z,43.95
2019-05-17T18:31:14.451Z,46.00
2019-05-17T18:33:44.153Z,43.60
2019-05-17T18:36:13.755Z,47.35
2019-05-17T18:38:46.645Z,46.35
2019-05-17T18:41:16.484Z,45.78
2019-05-17T18:43:46.269Z,46.83
2019-05-17T18:46:15.805Z,52.85
2019-05-17T18:48:45.499Z,44.98
2019-05-17T18:51:15.233Z,45.60
2019-05-17T18:53:44.839Z,45.52
2019-05-17T18:56:14.669Z,44.33
2019-05-17T18:58:44.573Z,40.63
2019-05-17T19:01:14.112Z,44.27
2019-05-17T19:03:44.053Z,51.70
2019-05-17T19:06:13.998Z,40.80
2019-05-17T19:08:43.851Z,48.60
2019-05-17T19:11:13.710Z,51.68
2019-05-17T19:13:43.704Z,50.55
2019-05-17T19:16:13.629Z,50.20
2019-05-17T19:18:43.491Z,51.33
2019-05-17T19:21:13.414Z,53.63
2019-05-17T19:23:44.713Z,53.53
2019-05-17T19:26:14.513Z,57.15
2019-05-17T19:28:44.387Z,53.15
2019-05-17T19:31:13.918Z,56.95
2019-05-17T19:33:45.467Z,56.83
2019-05-17T19:36:15.457Z,55.50
2019-05-17T19:38:45.701Z,58.40
2019-05-17T19:41:15.338Z,58.35
2019-05-17T19:43:45.109Z,59.00
2019-05-17T19:46:14.642Z,58.28
2019-05-17T19:48:44.536Z,62.35
2019-05-17T19:51:14.085Z,58.02
2019-05-17T19:53:43.963Z,62.55
2019-05-17T19:56:13.489Z,59.93
2019-05-17T19:58:43.394Z,62.25
2019-05-17T20:01:13.372Z,62.23
2019-05-17T20:03:43.244Z,59.63
2019-05-17T20:06:13.174Z,59.10
2019-05-17T20:08:43.036Z,62.37
2019-05-17T20:11:12.682Z,59.50
2019-05-17T20:13:42.460Z,61.45
2019-05-17T20:16:12.086Z,65.20
2019-05-17T20:18:42.609Z,62.75
2019-05-17T20:24:53.750Z,62.83
2019-05-17T20:27:25.921Z,61.15
2019-05-17T20:29:55.988Z,64.40
2019-05-17T20:32:26.770Z,61.27
2019-05-17T20:34:56.697Z,63.52
2019-05-17T20:38:29.065Z,64.77
2019-05-17T20:40:59.099Z,67.35
2019-05-17T20:43:30.176Z,63.33
2019-05-17T20:45:59.739Z,58.35
2019-05-17T20:48:30.105Z,64.47
2019-05-17T20:50:59.928Z,66.00
2019-05-17T20:53:29.457Z,65.00
2019-05-17T20:55:59.015Z,61.30
2019-05-17T20:58:28.844Z,65.22
2019-05-17T21:23:58.846Z,63.58
2019-05-17T22:33:33.854Z,60.92
2019-05-17T23:01:36.268Z,59.53
2019-05-17T23:07:52.583Z,61.33
2019-05-17T23:20:10.790Z,66.70
2019-05-17T23:23:20.149Z,59.00
2019-05-17T23:26:12.596Z,65.05
